Portada
METAR-TAF:

METAR-TAF

Aeroports :

Aeroport Internacional de Sfax

Sfax, Tunísia

latitud: 34-43N, longitud: 010-41E, altitud: 21 m

Observació

L'informe es va fer fa 28 minuts, a les 03:00 UTC
Vent 2 kt del Nord-Oest
Temperatura 9°C
Humitat 93%
Pressió 1022 hPa
Visibilitat: 6000 m

METAR: DTTX 250300Z 31002KT 6000 NSC 09/08 Q1022

Hora: 04:28 (03:28 UTC)

Pronòstic

L'informe es va fer fa 4 hores i 28 minuts, a les 23:00 UTC
Pronòstic vàlid del 25 a les 00 UTC al 25 a les 24 UTC
Vent 3 kt del Nord-Oest
Visibilitat: 8000 m
Escasses núvols a una alçada de 2600 ft
Probabilitat 40% :
Temporalment
l' 25 a les 00 UTC al 25 a les 08 UTC
Visibilitat: 3000 m
boirina
Probabilitat 30% :
Temporalment
l' 25 a les 22 UTC al 25 a les 24 UTC
Visibilitat: 4000 m
boirina

TAF: DTTX 242300Z 2500/2524 32003KT 8000 FEW026 PROB40 TEMPO 2500/2508 3000 BR PROB30 TEMPO 2522/2524 4000 BR

Observacions i pronòstics meteorològics de més de 4000 aeroports (METAR i TAF).

Les estacions disponibles són els punts grocs i vermells al mapa.

Posi el ratolí al punt desitjat per veure el nom de l'estació.

Feu clic per veure les observacions i els pronòstics meteorològics.

Per canviar el mapa: feu clic els botons verds amb una creu de color negre per apropar; al botó verd amb un guió per allunyar la imatge; o en les fletxes verdes per a mapes adjacents.


METAR-TAF: